createdAt,value
2022-12-11T00:00:59.942Z,58.38
2022-12-11T00:02:01.863Z,54.95
2022-12-11T00:03:04.342Z,49.88
2022-12-11T00:04:06.031Z,58.88
2022-12-11T00:05:08.417Z,69.45
2022-12-11T00:06:13.644Z,56.95
2022-12-11T00:07:15.313Z,55.45
2022-12-11T00:08:17.038Z,60.88
2022-12-11T00:09:19.735Z,57.25
2022-12-11T00:10:21.443Z,62.88
2022-12-11T00:11:23.807Z,60.17
2022-12-11T00:12:25.519Z,62.53
2022-12-11T00:13:27.469Z,59.08
2022-12-11T00:14:29.697Z,57.17
2022-12-11T00:15:31.431Z,60.35
2022-12-11T00:16:33.197Z,62.55
2022-12-11T00:17:34.944Z,65.72
2022-12-11T00:18:36.979Z,58.85
2022-12-11T00:19:38.686Z,68.18
2022-12-11T00:20:40.644Z,68.55
2022-12-11T00:21:42.474Z,70.63
2022-12-11T00:22:44.195Z,64.15
2022-12-11T00:23:45.873Z,64.80
2022-12-11T00:24:47.572Z,57.35
2022-12-11T00:25:49.748Z,65.95
2022-12-11T00:26:51.460Z,62.47
2022-12-11T00:27:53.123Z,62.70
2022-12-11T00:28:57.184Z,57.75
2022-12-11T00:29:58.835Z,54.17
2022-12-11T00:31:07.528Z,62.80
2022-12-11T00:32:09.261Z,61.72
2022-12-11T00:33:11.801Z,60.40
2022-12-11T00:34:13.567Z,63.42
2022-12-11T00:35:15.263Z,64.55
2022-12-11T00:36:23.108Z,62.10
2022-12-11T00:37:24.896Z,68.25
2022-12-11T00:38:26.675Z,59.58
2022-12-11T00:39:28.363Z,54.38
2022-12-11T00:40:30.032Z,53.13
2022-12-11T00:41:32.305Z,54.42
2022-12-11T00:42:33.977Z,53.13
2022-12-11T00:43:35.863Z,48.13
2022-12-11T00:44:37.706Z,52.33
2022-12-11T00:45:42.402Z,44.13
2022-12-11T00:46:44.127Z,63.40
2022-12-11T00:47:45.827Z,81.05
2022-12-11T00:48:49.954Z,83.55
2022-12-11T00:49:51.663Z,74.85
2022-12-11T00:50:53.422Z,76.50
2022-12-11T00:51:55.113Z,88.63
2022-12-11T00:52:56.773Z,86.45
2022-12-11T00:53:58.472Z,76.75
2022-12-11T00:55:00.157Z,79.15
2022-12-11T00:56:01.821Z,88.45
2022-12-11T00:57:03.598Z,84.55
2022-12-11T00:58:05.912Z,85.45
2022-12-11T00:59:07.666Z,88.18
2022-12-11T01:00:10.170Z,92.45
2022-12-11T01:01:21.318Z,99.38
2022-12-11T01:02:23.080Z,121.88
2022-12-11T01:03:24.774Z,95.53
2022-12-11T01:04:26.797Z,105.07
2022-12-11T01:05:28.804Z,104.03
2022-12-11T01:06:30.573Z,106.68
2022-12-11T01:07:32.240Z,103.90
2022-12-11T01:08:38.466Z,97.03
2022-12-11T01:09:59.111Z,83.25
2022-12-11T01:11:10.359Z,99.18
2022-12-11T01:16:18.496Z,91.95
2022-12-11T01:17:20.203Z,94.28
2022-12-11T01:18:22.040Z,103.05
2022-12-11T01:19:23.696Z,99.30
2022-12-11T01:20:26.495Z,85.88
2022-12-11T01:21:28.224Z,75.78
2022-12-11T01:22:30.490Z,74.50
2022-12-11T01:23:32.179Z,78.55
2022-12-11T01:24:33.839Z,80.60
2022-12-11T01:25:38.269Z,84.20
2022-12-11T01:26:40.004Z,82.55
2022-12-11T01:27:41.679Z,74.50
2022-12-11T01:28:44.171Z,75.38
2022-12-11T01:29:45.829Z,73.43
2022-12-11T01:30:47.618Z,75.68
2022-12-11T01:31:49.343Z,67.30
2022-12-11T01:32:51.039Z,66.53
2022-12-11T01:33:55.226Z,61.55
2022-12-11T01:34:56.886Z,69.72
2022-12-11T01:35:58.555Z,64.05
2022-12-11T01:37:00.220Z,59.40
2022-12-11T01:38:01.861Z,67.10
2022-12-11T01:39:04.182Z,57.75
2022-12-11T01:40:07.306Z,63.35
2022-12-11T01:41:09.523Z,59.50
2022-12-11T01:42:17.671Z,55.67
2022-12-11T01:43:19.448Z,55.58
2022-12-11T01:44:21.363Z,59.53
2022-12-11T01:45:30.730Z,58.47
2022-12-11T01:46:34.625Z,66.00
2022-12-11T01:47:36.383Z,59.90
2022-12-11T01:48:42.211Z,60.85
2022-12-11T01:49:44.204Z,62.67
2022-12-11T01:51:06.183Z,58.15
2022-12-11T01:52:16.368Z,61.28
2022-12-11T01:53:25.140Z,57.95
2022-12-11T01:54:28.438Z,58.90
2022-12-11T01:55:30.108Z,53.58
2022-12-11T01:56:34.169Z,55.83
2022-12-11T01:57:40.464Z,61.13
2022-12-11T01:58:47.787Z,51.40
2022-12-11T01:59:49.489Z,47.00
2022-12-11T02:00:52.715Z,51.50
2022-12-11T02:01:59.405Z,47.38
2022-12-11T02:03:01.157Z,48.65
2022-12-11T02:04:03.404Z,44.20
2022-12-11T02:05:06.282Z,48.53
2022-12-11T02:06:37.963Z,44.88
2022-12-11T02:07:52.780Z,41.97
2022-12-11T02:08:54.527Z,50.47
2022-12-11T02:09:56.418Z,48.28
2022-12-11T02:11:21.108Z,42.47
2022-12-11T02:12:41.591Z,44.90
2022-12-11T02:13:48.729Z,39.42
2022-12-11T02:14:52.993Z,44.60
2022-12-11T02:16:29.950Z,39.00
2022-12-11T02:17:56.024Z,42.95
2022-12-11T02:18:57.668Z,40.35
2022-12-11T02:20:16.992Z,39.70
2022-12-11T02:21:34.617Z,38.53
2022-12-11T02:23:04.361Z,41.40
2022-12-11T02:24:27.161Z,36.03
2022-12-11T02:25:37.102Z,48.25
2022-12-11T02:27:00.241Z,45.85
2022-12-11T02:28:11.050Z,54.78
2022-12-11T02:29:26.275Z,45.20
2022-12-11T02:30:28.746Z,51.60
2022-12-11T02:31:36.570Z,45.97
2022-12-11T02:32:59.128Z,38.85
2022-12-11T02:34:29.426Z,42.13
2022-12-11T02:35:38.103Z,42.88
2022-12-11T02:36:48.430Z,47.55
2022-12-11T02:37:56.397Z,43.42
2022-12-11T02:39:01.466Z,50.08
2022-12-11T02:40:04.938Z,42.70
2022-12-11T02:41:08.293Z,45.85
2022-12-11T02:42:13.056Z,44.40
2022-12-11T02:43:16.908Z,44.00
2022-12-11T02:44:27.183Z,44.40
2022-12-11T02:45:29.795Z,41.60
2022-12-11T02:46:34.899Z,41.38
2022-12-11T02:47:39.603Z,43.38
2022-12-11T02:48:42.140Z,42.20
2022-12-11T02:49:47.849Z,45.85
2022-12-11T02:50:52.781Z,35.22
2022-12-11T02:51:57.034Z,41.20
2022-12-11T02:53:03.051Z,42.60
2022-12-11T02:54:07.553Z,42.88
2022-12-11T02:55:13.032Z,46.22
2022-12-11T02:56:26.130Z,42.28
2022-12-11T02:57:40.503Z,44.53
2022-12-11T02:58:52.703Z,42.35
2022-12-11T02:59:57.151Z,49.22
2022-12-11T03:00:58.886Z,40.65
2022-12-11T03:02:01.251Z,40.38
2022-12-11T03:03:03.219Z,50.67
2022-12-11T03:04:05.050Z,40.70
2022-12-11T03:05:07.528Z,42.08
2022-12-11T03:06:14.920Z,44.95
2022-12-11T03:07:26.539Z,38.30
2022-12-11T03:08:28.250Z,42.08
2022-12-11T03:09:29.977Z,38.70
2022-12-11T03:10:31.688Z,38.85
2022-12-11T03:11:33.382Z,43.47
2022-12-11T03:12:39.108Z,37.85
2022-12-11T03:13:42.736Z,33.83
2022-12-11T03:14:45.024Z,39.47
2022-12-11T03:16:03.935Z,31.88
2022-12-11T03:17:15.359Z,33.55
2022-12-11T03:18:35.285Z,35.88
2022-12-11T03:19:45.980Z,35.05
2022-12-11T03:21:04.675Z,30.60
2022-12-11T03:22:16.267Z,31.38
2022-12-11T03:23:30.795Z,28.77
2022-12-11T03:24:46.351Z,29.40
2022-12-11T03:25:55.802Z,27.17
2022-12-11T03:27:11.191Z,32.72
2022-12-11T03:28:19.807Z,29.75
2022-12-11T03:29:25.734Z,30.92
2022-12-11T03:30:29.052Z,31.55
2022-12-11T03:31:42.414Z,40.33
2022-12-11T03:32:50.350Z,31.83
2022-12-11T03:33:56.303Z,37.53
2022-12-11T03:35:05.414Z,35.90
2022-12-11T03:36:31.252Z,32.63
2022-12-11T03:37:36.615Z,31.38
2022-12-11T03:38:49.259Z,30.65
2022-12-11T03:39:54.687Z,27.05
2022-12-11T03:41:00.930Z,29.30
2022-12-11T03:42:07.096Z,35.22
2022-12-11T03:43:11.090Z,32.13
2022-12-11T03:44:13.715Z,27.80
2022-12-11T03:45:17.725Z,33.08
2022-12-11T03:46:22.545Z,25.30
2022-12-11T03:47:27.227Z,33.35
2022-12-11T03:48:34.232Z,25.98
2022-12-11T03:49:40.285Z,22.42
2022-12-11T03:50:43.681Z,25.10
2022-12-11T03:51:48.332Z,25.48
2022-12-11T03:52:51.110Z,26.73
2022-12-11T03:53:53.404Z,25.80
2022-12-11T03:55:00.383Z,23.90
2022-12-11T03:56:04.524Z,32.22
2022-12-11T03:57:08.407Z,29.63
2022-12-11T03:58:10.102Z,28.95
2022-12-11T03:59:12.329Z,33.28
2022-12-11T04:00:16.902Z,27.50
2022-12-11T04:01:18.592Z,29.30
2022-12-11T04:02:20.480Z,27.60
2022-12-11T04:03:22.211Z,30.17
2022-12-11T04:04:23.957Z,29.00
2022-12-11T04:05:25.674Z,26.73
2022-12-11T04:06:27.564Z,24.60
2022-12-11T04:07:29.230Z,26.08
2022-12-11T04:08:30.960Z,22.23
2022-12-11T04:09:33.045Z,23.38
2022-12-11T04:10:34.749Z,30.30
2022-12-11T04:11:36.506Z,26.00
2022-12-11T04:12:38.164Z,28.73
2022-12-11T04:13:41.195Z,23.38
2022-12-11T04:15:01.538Z,18.17
2022-12-11T04:16:03.274Z,23.25
2022-12-11T04:17:05.552Z,24.67
2022-12-11T04:18:27.422Z,24.50
2022-12-11T04:19:47.839Z,16.52
2022-12-11T04:21:08.252Z,27.38
2022-12-11T04:22:32.793Z,16.85
2022-12-11T04:23:52.966Z,17.35
2022-12-11T04:24:54.636Z,18.48
2022-12-11T04:26:14.648Z,19.90
2022-12-11T04:27:36.049Z,14.43
2022-12-11T04:29:39.581Z,17.23
2022-12-11T04:30:41.427Z,12.52
2022-12-11T04:31:43.272Z,19.35
2022-12-11T04:32:45.157Z,17.05
2022-12-11T04:33:47.541Z,17.67
2022-12-11T04:34:49.225Z,13.63
2022-12-11T04:35:50.889Z,14.52
2022-12-11T04:36:52.552Z,14.23
2022-12-11T04:37:54.318Z,13.38
2022-12-11T04:38:56.072Z,12.75
2022-12-11T04:39:57.745Z,13.02
2022-12-11T04:41:08.298Z,17.27
2022-12-11T04:42:09.959Z,13.25
2022-12-11T04:43:11.644Z,13.77
2022-12-11T04:44:13.343Z,20.27
2022-12-11T04:45:15.215Z,18.20
2022-12-11T04:46:21.216Z,21.55
2022-12-11T04:47:23.213Z,26.65
2022-12-11T04:48:24.921Z,21.75
2022-12-11T04:49:26.578Z,21.38
2022-12-11T04:50:28.317Z,20.35
2022-12-11T04:51:30.137Z,28.15
2022-12-11T04:52:31.844Z,19.58
2022-12-11T04:53:34.173Z,23.27
2022-12-11T04:54:36.110Z,22.20
2022-12-11T04:55:39.381Z,22.85
2022-12-11T04:56:41.031Z,23.75
2022-12-11T04:57:42.799Z,22.73
2022-12-11T04:58:45.550Z,25.30
2022-12-11T04:59:47.924Z,17.40
2022-12-11T05:00:49.865Z,24.42
2022-12-11T05:01:52.505Z,15.43
2022-12-11T05:02:54.265Z,21.63
2022-12-11T05:03:56.280Z,28.67
2022-12-11T05:04:57.976Z,21.77
2022-12-11T05:05:59.631Z,24.30
2022-12-11T05:07:01.756Z,21.27
2022-12-11T05:08:03.869Z,20.73
2022-12-11T05:09:05.543Z,24.17
2022-12-11T05:10:07.920Z,22.15
2022-12-11T05:11:12.231Z,18.30
2022-12-11T05:12:13.904Z,27.65
2022-12-11T05:13:15.597Z,20.35
2022-12-11T05:14:17.402Z,19.48
2022-12-11T05:15:19.052Z,23.17
2022-12-11T05:16:20.795Z,24.80
2022-12-11T05:17:22.929Z,17.20
2022-12-11T05:18:25.265Z,18.63
2022-12-11T05:19:27.708Z,18.13
2022-12-11T05:20:29.401Z,16.70
2022-12-11T05:21:35.020Z,14.73
2022-12-11T05:22:38.022Z,18.17
2022-12-11T05:23:40.048Z,15.70
2022-12-11T05:24:41.919Z,18.55
2022-12-11T05:25:43.619Z,19.00
2022-12-11T05:26:45.385Z,18.83
2022-12-11T05:27:47.040Z,19.42
2022-12-11T05:28:54.273Z,18.10
2022-12-11T05:29:59.420Z,20.38
2022-12-11T05:31:05.021Z,11.10
2022-12-11T05:32:07.965Z,19.95
2022-12-11T05:33:09.628Z,17.83
2022-12-11T05:34:11.428Z,19.13
2022-12-11T05:35:13.344Z,16.83
2022-12-11T05:36:22.320Z,16.73
2022-12-11T05:37:23.983Z,17.63
2022-12-11T05:38:25.912Z,15.98
2022-12-11T05:39:27.587Z,11.32
2022-12-11T05:40:29.331Z,12.45
2022-12-11T05:41:32.892Z,12.07
2022-12-11T05:42:34.772Z,11.80
2022-12-11T05:43:37.238Z,10.10
2022-12-11T05:44:38.917Z,10.70
2022-12-11T05:45:40.588Z,16.48
2022-12-11T05:46:42.339Z,12.48
2022-12-11T05:47:44.093Z,14.20
2022-12-11T05:48:48.283Z,14.35
2022-12-11T05:49:49.954Z,17.85
2022-12-11T05:50:59.446Z,13.63
2022-12-11T05:52:01.135Z,13.60
2022-12-11T05:53:02.918Z,14.82
2022-12-11T05:54:05.370Z,13.50
2022-12-11T05:55:07.477Z,13.80
2022-12-11T05:56:13.465Z,14.07
2022-12-11T05:57:15.144Z,9.90
2022-12-11T05:58:16.818Z,14.52
2022-12-11T05:59:19.867Z,15.85
2022-12-11T06:00:21.596Z,12.82
2022-12-11T06:01:30.367Z,11.07
2022-12-11T06:02:34.614Z,10.88
2022-12-11T06:03:36.352Z,13.55
2022-12-11T06:04:38.056Z,13.52
2022-12-11T06:05:41.801Z,15.32
2022-12-11T06:06:43.998Z,13.05
2022-12-11T06:07:45.732Z,16.33
2022-12-11T06:08:51.346Z,14.63
2022-12-11T06:09:53.063Z,13.68
2022-12-11T06:10:54.758Z,17.55
2022-12-11T06:11:56.416Z,21.85
2022-12-11T06:12:58.065Z,23.52
2022-12-11T06:14:01.575Z,22.00
2022-12-11T06:15:05.215Z,19.17
2022-12-11T06:16:08.769Z,20.10
2022-12-11T06:17:10.580Z,17.48
2022-12-11T06:18:12.353Z,13.93
2022-12-11T06:19:16.929Z,15.77
2022-12-11T06:20:18.743Z,15.32
2022-12-11T06:21:26.745Z,15.13
2022-12-11T06:22:28.433Z,16.33
2022-12-11T06:23:30.085Z,17.35
2022-12-11T06:24:31.829Z,16.58
2022-12-11T06:25:33.680Z,20.38
2022-12-11T06:26:35.333Z,17.52
2022-12-11T06:27:37.023Z,19.40
2022-12-11T06:28:39.059Z,14.82
2022-12-11T06:29:41.029Z,17.88
2022-12-11T06:30:42.685Z,16.58
2022-12-11T06:31:44.395Z,14.88
2022-12-11T06:32:46.067Z,14.02
2022-12-11T06:33:48.294Z,13.25
2022-12-11T06:34:50.022Z,14.70
2022-12-11T06:35:52.232Z,16.50
2022-12-11T06:36:53.916Z,15.10
2022-12-11T06:37:56.118Z,13.98
2022-12-11T06:38:57.839Z,16.33
2022-12-11T06:39:59.613Z,16.95
2022-12-11T06:41:04.945Z,41.45
2022-12-11T06:42:06.594Z,43.53
2022-12-11T06:43:08.305Z,45.58
2022-12-11T06:44:10.022Z,38.67
2022-12-11T06:45:12.046Z,40.28
2022-12-11T06:46:16.993Z,41.67
2022-12-11T06:47:18.694Z,36.33
2022-12-11T06:48:20.494Z,34.53
2022-12-11T06:49:22.284Z,40.90
2022-12-11T06:50:24.019Z,33.80
2022-12-11T06:51:25.699Z,34.72
2022-12-11T06:52:30.347Z,28.23
2022-12-11T06:53:32.044Z,27.60
2022-12-11T06:54:33.699Z,23.88
2022-12-11T06:55:36.462Z,24.63
2022-12-11T06:56:38.205Z,27.55
2022-12-11T06:57:40.012Z,20.75
2022-12-11T06:58:43.337Z,22.63
2022-12-11T06:59:45.555Z,18.50
2022-12-11T07:00:47.340Z,19.17
2022-12-11T07:01:49.164Z,21.50
2022-12-11T07:02:51.452Z,19.98
2022-12-11T07:03:55.041Z,20.77
2022-12-11T07:04:56.699Z,19.83
2022-12-11T07:06:02.431Z,20.50
2022-12-11T07:07:04.163Z,17.05
2022-12-11T07:08:07.492Z,17.05
2022-12-11T07:09:10.170Z,13.93
2022-12-11T07:10:12.115Z,16.90
2022-12-11T07:11:15.944Z,15.50
2022-12-11T07:12:17.827Z,17.90
2022-12-11T07:13:19.484Z,16.45
2022-12-11T07:14:21.283Z,16.30
2022-12-11T07:15:22.944Z,8.80
2022-12-11T07:16:25.054Z,17.75
2022-12-11T07:17:26.718Z,16.45
2022-12-11T07:18:29.059Z,18.73
2022-12-11T07:19:31.199Z,11.85
2022-12-11T07:20:32.852Z,11.02
2022-12-11T07:21:34.513Z,15.10
2022-12-11T07:22:40.347Z,8.75
2022-12-11T07:23:44.904Z,12.50
2022-12-11T07:24:46.598Z,14.82
2022-12-11T07:25:48.302Z,11.82
2022-12-11T07:26:50.040Z,10.32
2022-12-11T07:27:51.724Z,10.75
2022-12-11T07:28:53.486Z,11.32
2022-12-11T07:29:55.902Z,11.50
2022-12-11T07:30:57.600Z,8.25
2022-12-11T07:31:59.418Z,7.88
2022-12-11T07:33:01.437Z,10.60
2022-12-11T07:34:05.439Z,12.30
2022-12-11T07:35:07.443Z,10.88
2022-12-11T07:36:11.314Z,11.90
2022-12-11T07:37:12.972Z,10.65
2022-12-11T07:38:14.645Z,11.73
2022-12-11T07:39:16.362Z,13.18
2022-12-11T07:40:18.130Z,21.15
2022-12-11T07:41:19.865Z,18.38
2022-12-11T07:42:21.561Z,19.80
2022-12-11T07:43:23.231Z,21.02
2022-12-11T07:44:24.889Z,19.65
2022-12-11T07:45:26.713Z,30.23
2022-12-11T07:46:31.128Z,33.75
2022-12-11T07:47:33.724Z,27.08
2022-12-11T07:48:36.415Z,27.02
2022-12-11T07:49:38.426Z,31.52
2022-12-11T07:50:40.136Z,30.35
2022-12-11T07:51:43.623Z,34.25
2022-12-11T07:52:45.529Z,31.80
2022-12-11T07:53:49.515Z,26.10
2022-12-11T07:54:51.209Z,19.08
2022-12-11T07:55:52.915Z,22.58
2022-12-11T07:56:54.603Z,18.50
2022-12-11T07:57:56.267Z,25.92
2022-12-11T07:59:00.611Z,25.83
2022-12-11T08:00:02.336Z,22.10
2022-12-11T08:01:04.050Z,21.83
2022-12-11T08:02:05.870Z,19.60
2022-12-11T08:03:07.560Z,19.27
2022-12-11T08:04:12.084Z,17.77
2022-12-11T08:05:13.925Z,21.33
2022-12-11T08:06:16.576Z,22.63
2022-12-11T08:07:18.287Z,21.27
2022-12-11T08:08:20.343Z,15.43
2022-12-11T08:09:22.815Z,12.00
2022-12-11T08:10:24.515Z,16.17
2022-12-11T08:11:26.433Z,20.30
2022-12-11T08:12:28.110Z,17.95
2022-12-11T08:13:29.796Z,13.63
2022-12-11T08:14:31.489Z,12.82
2022-12-11T08:15:33.965Z,14.27
2022-12-11T08:16:35.762Z,14.13
2022-12-11T08:17:40.204Z,13.32
2022-12-11T08:18:42.912Z,16.48
2022-12-11T08:19:44.573Z,22.42
2022-12-11T08:20:46.310Z,17.73
2022-12-11T08:21:48.072Z,17.15
2022-12-11T08:22:52.344Z,19.75
2022-12-11T08:23:56.753Z,17.00
2022-12-11T08:24:58.697Z,17.33
2022-12-11T08:26:04.210Z,25.20
2022-12-11T08:27:06.023Z,22.55
2022-12-11T08:28:07.748Z,18.92
2022-12-11T08:29:10.190Z,29.75
2022-12-11T08:30:12.158Z,16.48
2022-12-11T08:31:15.987Z,16.60
2022-12-11T08:32:18.874Z,14.82
2022-12-11T08:33:20.567Z,14.55
2022-12-11T08:34:22.394Z,18.33
2022-12-11T08:35:24.187Z,16.13
2022-12-11T08:36:26.318Z,19.73
2022-12-11T08:37:28.139Z,22.73
2022-12-11T08:38:30.363Z,18.38
2022-12-11T08:39:32.098Z,16.13
2022-12-11T08:40:33.767Z,17.88
2022-12-11T08:41:35.434Z,17.55
2022-12-11T08:42:37.245Z,13.40
2022-12-11T08:43:39.373Z,13.73
2022-12-11T08:44:41.417Z,11.60
2022-12-11T08:45:43.128Z,15.13
2022-12-11T08:46:44.860Z,18.20
2022-12-11T08:47:46.556Z,15.20
2022-12-11T08:48:48.430Z,13.32
2022-12-11T08:49:50.093Z,13.77
2022-12-11T08:50:51.813Z,11.65
2022-12-11T08:51:53.475Z,11.95
2022-12-11T08:52:55.193Z,12.52
2022-12-11T08:53:58.515Z,13.02
2022-12-11T08:55:00.209Z,16.02
2022-12-11T08:56:10.466Z,12.15
2022-12-11T08:57:12.164Z,10.40
2022-12-11T08:58:13.852Z,9.20
2022-12-11T08:59:16.840Z,11.73
2022-12-11T09:00:18.862Z,10.18
2022-12-11T09:01:26.350Z,14.43
2022-12-11T09:02:28.114Z,11.27
2022-12-11T09:03:29.809Z,15.02
2022-12-11T09:04:31.490Z,9.55
2022-12-11T09:05:33.143Z,11.13
2022-12-11T09:06:34.950Z,13.15
2022-12-11T09:07:38.089Z,13.77
2022-12-11T09:08:40.426Z,14.90
2022-12-11T09:09:42.130Z,10.75
2022-12-11T09:10:43.964Z,12.68
2022-12-11T09:11:46.593Z,13.65
2022-12-11T09:12:48.267Z,11.43
2022-12-11T09:13:50.269Z,12.63
2022-12-11T09:14:52.044Z,18.20
2022-12-11T09:15:53.791Z,11.07
2022-12-11T09:16:55.505Z,14.38
2022-12-11T09:17:57.204Z,20.35
2022-12-11T09:19:00.006Z,24.00
2022-12-11T09:20:02.327Z,30.02
2022-12-11T09:21:13.547Z,27.77
2022-12-11T09:22:15.313Z,26.45
2022-12-11T09:23:16.984Z,20.42
2022-12-11T09:24:18.710Z,26.75
2022-12-11T09:25:20.429Z,24.13
2022-12-11T09:26:22.979Z,23.15
2022-12-11T09:27:24.733Z,22.75
2022-12-11T09:28:26.620Z,21.80
2022-12-11T09:29:28.301Z,22.65
2022-12-11T09:30:30.036Z,18.33
2022-12-11T09:31:34.971Z,17.50
2022-12-11T09:32:36.714Z,20.83
2022-12-11T09:33:39.417Z,23.23
2022-12-11T09:34:41.078Z,20.33
2022-12-11T09:35:43.340Z,19.48
2022-12-11T09:36:45.068Z,30.15
2022-12-11T09:37:46.745Z,13.90
2022-12-11T09:38:48.904Z,12.85
2022-12-11T09:39:50.606Z,21.55
2022-12-11T09:40:52.287Z,16.30
2022-12-11T09:42:00.048Z,10.48
2022-12-11T09:43:12.693Z,16.05
2022-12-11T09:44:32.456Z,15.35
2022-12-11T09:45:34.209Z,16.73
2022-12-11T09:46:36.844Z,16.05
2022-12-11T09:47:44.424Z,17.55
2022-12-11T09:48:48.280Z,13.95
2022-12-11T09:49:57.092Z,18.60
2022-12-11T09:51:01.128Z,15.35
2022-12-11T09:52:15.140Z,18.92
2022-12-11T09:53:22.963Z,20.83
2022-12-11T09:54:24.687Z,14.43
2022-12-11T09:55:36.338Z,14.70
2022-12-11T09:57:14.781Z,14.30
2022-12-11T09:58:39.267Z,18.02
2022-12-11T10:00:05.703Z,12.80
2022-12-11T10:01:27.129Z,14.35
2022-12-11T10:02:43.836Z,10.52
2022-12-11T10:04:01.886Z,10.70
2022-12-11T10:05:20.250Z,10.13
2022-12-11T10:06:38.402Z,9.40
2022-12-11T10:07:52.039Z,15.38
2022-12-11T10:09:03.551Z,11.95
2022-12-11T10:10:22.679Z,12.80
2022-12-11T10:11:56.766Z,10.13
2022-12-11T10:13:02.944Z,8.45
2022-12-11T10:14:13.647Z,17.85
2022-12-11T10:15:39.863Z,11.65
2022-12-11T10:16:45.380Z,9.32
2022-12-11T10:17:47.864Z,8.02
2022-12-11T10:18:50.183Z,7.28
2022-12-11T10:19:52.478Z,8.82
2022-12-11T10:20:55.017Z,8.27
2022-12-11T10:21:59.096Z,5.40
2022-12-11T10:23:02.207Z,3.85
2022-12-11T10:24:06.135Z,5.50
2022-12-11T10:25:17.980Z,10.20
2022-12-11T10:26:22.656Z,4.07
2022-12-11T10:27:31.562Z,8.40
2022-12-11T10:28:33.387Z,8.07
2022-12-11T10:29:35.122Z,10.98
2022-12-11T10:30:38.381Z,8.07
2022-12-11T10:31:59.195Z,6.88
2022-12-11T10:33:27.016Z,5.47
2022-12-11T10:34:40.150Z,6.25
2022-12-11T10:35:44.795Z,6.35
2022-12-11T10:36:47.217Z,7.35
2022-12-11T10:37:48.909Z,8.00
2022-12-11T10:38:50.868Z,6.05
2022-12-11T10:39:52.649Z,6.47
2022-12-11T10:41:17.871Z,9.25
2022-12-11T10:42:22.461Z,7.35
2022-12-11T10:43:44.450Z,9.43
2022-12-11T10:45:01.047Z,7.97
2022-12-11T10:46:03.996Z,7.38
2022-12-11T10:47:10.623Z,6.78
2022-12-11T10:48:13.357Z,8.70
2022-12-11T10:49:27.915Z,7.28
2022-12-11T10:50:29.723Z,9.43
2022-12-11T10:51:31.320Z,9.38
2022-12-11T10:52:39.192Z,10.45
2022-12-11T10:53:43.375Z,6.13
2022-12-11T10:54:48.967Z,6.15
2022-12-11T10:55:50.882Z,7.72
2022-12-11T10:56:54.119Z,6.65
2022-12-11T10:58:04.453Z,9.25
2022-12-11T10:59:06.901Z,7.65
2022-12-11T11:00:30.085Z,6.50
2022-12-11T11:01:32.993Z,9.80
2022-12-11T11:02:38.645Z,11.18
2022-12-11T11:04:20.299Z,9.00
2022-12-11T11:05:34.743Z,6.13
2022-12-11T11:06:36.531Z,5.03
2022-12-11T11:07:38.359Z,5.00
2022-12-11T11:08:44.215Z,6.20
2022-12-11T11:09:46.241Z,6.47
2022-12-11T11:11:06.209Z,6.70
2022-12-11T11:12:24.762Z,8.27
2022-12-11T11:13:29.084Z,6.40
2022-12-11T11:14:30.829Z,4.57
2022-12-11T11:15:33.023Z,5.68
2022-12-11T11:16:39.006Z,6.10
2022-12-11T11:17:54.241Z,7.18
2022-12-11T11:18:58.278Z,3.88
2022-12-11T11:20:12.172Z,4.32
2022-12-11T11:21:19.140Z,9.48
2022-12-11T11:22:20.841Z,7.80
2022-12-11T11:23:24.005Z,6.38
2022-12-11T11:24:36.888Z,5.70
2022-12-11T11:25:38.644Z,6.45
2022-12-11T11:27:11.635Z,6.25
2022-12-11T11:28:05.972Z,3.95
2022-12-11T11:29:26.399Z,6.03
2022-12-11T11:30:35.015Z,7.20
2022-12-11T11:31:37.063Z,4.25
2022-12-11T11:32:41.443Z,4.97
2022-12-11T11:34:06.161Z,7.10
2022-12-11T11:35:11.686Z,4.32
2022-12-11T11:36:42.976Z,4.85
2022-12-11T11:37:57.209Z,4.07
2022-12-11T11:39:23.489Z,6.18
2022-12-11T11:40:39.597Z,5.70
2022-12-11T11:41:52.077Z,5.95
2022-12-11T11:43:07.589Z,6.72
2022-12-11T11:44:15.091Z,4.50
2022-12-11T11:45:24.523Z,7.40
2022-12-11T11:46:36.706Z,6.32
2022-12-11T11:47:43.464Z,16.48
2022-12-11T11:49:11.803Z,13.32
2022-12-11T11:50:27.868Z,8.77
2022-12-11T11:51:38.987Z,12.40
2022-12-11T11:53:52.906Z,8.77
2022-12-11T11:55:02.274Z,4.75
2022-12-11T11:56:35.173Z,4.22
2022-12-11T11:57:54.269Z,4.78
2022-12-11T11:59:08.591Z,8.25
2022-12-11T12:00:28.869Z,6.95
2022-12-11T12:01:35.000Z,6.82
2022-12-11T12:02:37.012Z,9.77
2022-12-11T12:03:38.709Z,11.52
2022-12-11T12:04:40.515Z,36.55
2022-12-11T12:06:04.539Z,34.40
2022-12-11T12:07:35.377Z,17.88
2022-12-11T12:08:40.097Z,13.32
2022-12-11T12:09:41.729Z,10.98
2022-12-11T12:11:16.044Z,13.07
2022-12-11T12:12:34.413Z,12.38
2022-12-11T12:14:43.690Z,12.20
2022-12-11T12:15:48.904Z,15.77
2022-12-11T12:17:08.868Z,8.77
2022-12-11T12:18:22.880Z,10.15
2022-12-11T12:19:46.351Z,14.40
2022-12-11T12:20:53.745Z,18.55
2022-12-11T12:21:55.973Z,21.10
2022-12-11T12:23:25.502Z,21.48
2022-12-11T12:24:49.588Z,12.02
2022-12-11T12:26:02.337Z,10.98
2022-12-11T12:27:51.583Z,11.98
2022-12-11T12:29:06.004Z,12.43
2022-12-11T12:30:22.116Z,12.02
2022-12-11T12:31:24.863Z,12.15
2022-12-11T12:32:41.059Z,6.47
2022-12-11T12:33:58.034Z,7.80
2022-12-11T12:35:05.821Z,8.10
2022-12-11T12:36:32.543Z,13.35
2022-12-11T12:38:00.461Z,12.43
2022-12-11T12:39:07.956Z,15.18
2022-12-11T12:40:24.950Z,13.23
2022-12-11T12:41:32.820Z,15.32
2022-12-11T12:42:52.947Z,15.25
2022-12-11T12:44:12.090Z,10.05
2022-12-11T12:45:25.140Z,11.20
2022-12-11T12:46:51.715Z,7.53
2022-12-11T12:47:53.710Z,12.10
2022-12-11T12:48:59.073Z,10.20
2022-12-11T12:50:01.802Z,12.00
2022-12-11T12:51:04.614Z,14.07
2022-12-11T12:52:13.462Z,11.68
2022-12-11T12:53:23.121Z,16.63
2022-12-11T12:54:27.955Z,14.95
2022-12-11T12:55:32.040Z,9.40
2022-12-11T12:56:34.157Z,12.85
2022-12-11T12:57:38.408Z,9.30
2022-12-11T12:58:43.732Z,10.35
2022-12-11T12:59:54.436Z,8.50
2022-12-11T13:01:10.907Z,8.50
2022-12-11T13:02:16.938Z,9.38
2022-12-11T13:03:32.781Z,7.45
2022-12-11T13:04:55.076Z,8.30
2022-12-11T13:06:02.046Z,6.78
2022-12-11T13:07:32.802Z,5.68
2022-12-11T13:08:46.183Z,5.90
2022-12-11T13:10:04.744Z,5.65
2022-12-11T13:11:12.512Z,5.43
2022-12-11T13:12:46.296Z,3.80
2022-12-11T13:14:02.687Z,1.75
2022-12-11T13:15:04.477Z,2.90
2022-12-11T13:16:34.682Z,0.95
2022-12-11T13:17:39.307Z,3.75
2022-12-11T13:18:43.374Z,1.80
2022-12-11T13:19:45.089Z,0.65
2022-12-11T13:20:51.230Z,1.83
2022-12-11T13:22:13.149Z,2.55
2022-12-11T13:23:47.169Z,3.63
2022-12-11T13:24:49.572Z,1.00
2022-12-11T13:25:54.832Z,3.10
2022-12-11T13:26:56.931Z,2.58
2022-12-11T13:28:08.960Z,1.65
2022-12-11T13:29:34.088Z,1.50
2022-12-11T13:30:36.380Z,1.80
2022-12-11T13:31:43.933Z,3.28
2022-12-11T13:33:03.673Z,1.30
2022-12-11T13:34:22.919Z,2.10
2022-12-11T13:35:24.755Z,1.88
2022-12-11T13:36:33.243Z,0.85
2022-12-11T13:37:43.400Z,3.42
2022-12-11T13:38:49.522Z,2.25
2022-12-11T13:39:52.132Z,2.35
2022-12-11T13:40:55.804Z,3.05
2022-12-11T13:42:01.884Z,2.25
2022-12-11T13:43:08.461Z,3.13
2022-12-11T13:44:20.242Z,3.60
2022-12-11T13:45:29.811Z,1.83
2022-12-11T13:46:35.941Z,1.52
2022-12-11T13:47:38.302Z,1.75
2022-12-11T13:48:48.011Z,0.70
2022-12-11T13:49:55.251Z,0.95
2022-12-11T13:50:58.537Z,1.33
2022-12-11T13:52:01.224Z,0.50
2022-12-11T13:53:03.567Z,0.90
2022-12-11T13:54:17.250Z,1.17
2022-12-11T13:55:32.680Z,0.47
2022-12-11T13:56:34.565Z,0.88
2022-12-11T13:57:46.085Z,1.17
2022-12-11T13:58:48.400Z,0.82
2022-12-11T13:59:55.817Z,0.77
2022-12-11T14:01:06.489Z,1.00
2022-12-11T14:02:24.015Z,1.42
2022-12-11T14:03:26.306Z,0.52
2022-12-11T14:04:29.733Z,0.50
2022-12-11T14:05:31.709Z,1.73
2022-12-11T14:06:35.246Z,1.58
2022-12-11T14:07:41.879Z,1.90
2022-12-11T14:08:46.327Z,1.75
2022-12-11T14:09:48.129Z,2.88
2022-12-11T14:10:54.262Z,2.15
2022-12-11T14:11:57.466Z,1.67
2022-12-11T14:13:23.559Z,2.80
2022-12-11T14:14:50.593Z,2.05
2022-12-11T14:15:53.728Z,2.65
2022-12-11T14:16:55.897Z,4.00
2022-12-11T14:17:59.453Z,1.02
2022-12-11T14:19:07.550Z,2.00
2022-12-11T14:20:20.322Z,0.68
2022-12-11T14:21:24.848Z,1.85
2022-12-11T14:22:28.303Z,2.35
2022-12-11T14:23:35.673Z,1.83
2022-12-11T14:24:37.351Z,3.33
2022-12-11T14:25:40.057Z,5.38
2022-12-11T14:26:51.938Z,0.45